Aeroporto :
LOGIN :

Iscrizione | Disclaimer

   EN    FR    IT 

 










Sommario :    VFR   VFR Marginale   IFR   IFR Intensivo   IFR Molto Intensivo
Visibilità : 
Base nubi : 
>= 8 km
>= 3000ft
5 / 8 km
1000 / 3000 ft
1500m / 5 km
500 / 1000 ft
800 / 1500m
200 / 500 ft
< 800m
< 200 ft
Simboli :   Temporali  Nebbia  Neve Forte  Precipitazioni Forti  Vento > 20 kt
SIGMETs :   Varie  Temporali  Ghiacco  Turbolenza  Onda orograficha  Ceneri Vulcaniche






- Altitudine del aeroporto : 375 ft
- Codice IATA : MST


EHBK - Maastricht Aachen

ULTIMO METAR :
  • 290625Z AUTO 35009KT 310V050 9999 NCD 03/M00 Q1026 BECMG 02018G28KT

METARs OBSOLETI :
  • 290555Z AUTO 36007KT 320V030 9999 NCD 02/M00 Q1026 NOSIG
  • 290525Z AUTO 36007KT 320V030 9999 NSC 02/M01 Q1025 NOSIG
  • 290455Z AUTO 35007KT 310V030 9999 NSC 02/M01 Q1025 NOSIG
  • 290425Z AUTO 33007KT 9999 FEW022 03/M01 Q1025 NOSIG
  • 290355Z AUTO 35007KT 320V020 9999 BKN022 BKN027 BKN031 03/M01 Q1025

TAF TAF EHBK
Valido dal 29 a 06 ore il 30 a 12 ore UTC


290516Z 2906/3012 34008KT CAVOK
BECMG 2907/2910 02018G32KT
PROB40
TEMPO 2910/2914 3000 SHSNRAGS BKN012 SCT020CB
BECMG 2918/2920 03012G22KT
BECMG 3006/3009 36005KT



MetMap, La meteo Aeronautica in un colpo d'occhio ! - Copyright ORBIFLY Dicembre 2007 - Disclaimer

ORBIFLY MET'MAP TEAM :

Programmazione e sviluppo : Alexandra Zaïnal
Concezione : Baudouin d'Aumeries
Aiuto per la programmazione : Marc-Olivier Méhu
Supporto tecnico e logistico : Manuel Goepfert
Aiuto per la traduzione : Arnaldo La Scala

Contatto : metmap@orbifly.com




FONTI E CREDITI :

   NOAA